createdAt,value
2019-02-02T00:00:16.412Z,31.30
2019-02-02T00:05:17.774Z,25.93
2019-02-02T00:10:19.114Z,30.03
2019-02-02T00:15:20.431Z,27.97
2019-02-02T00:20:21.740Z,26.67
2019-02-02T00:25:23.043Z,24.27
2019-02-02T00:30:24.390Z,26.77
2019-02-02T00:35:25.705Z,23.87
2019-02-02T00:40:27.011Z,26.10
2019-02-02T00:45:28.371Z,54.43
2019-02-02T00:50:29.680Z,24.20
2019-02-02T00:55:30.988Z,24.00
2019-02-02T01:00:32.314Z,24.00
2019-02-02T01:05:33.588Z,24.20
2019-02-02T01:10:40.004Z,21.87
2019-02-02T01:15:41.497Z,22.37
2019-02-02T01:20:42.849Z,22.80
2019-02-02T01:25:44.151Z,22.00
2019-02-02T01:30:45.541Z,21.60
2019-02-02T01:35:46.893Z,22.93
2019-02-02T01:40:48.199Z,22.67
2019-02-02T01:45:49.520Z,17.67
2019-02-02T01:50:50.811Z,17.60
2019-02-02T01:55:52.131Z,22.30
2019-02-02T02:00:53.451Z,20.10
2019-02-02T02:05:54.744Z,16.93
2019-02-02T02:10:58.189Z,20.17
2019-02-02T02:15:59.215Z,20.60
2019-02-02T02:21:00.538Z,20.43
2019-02-02T02:26:01.837Z,19.17
2019-02-02T02:31:03.188Z,20.07
2019-02-02T02:36:04.484Z,18.53
2019-02-02T02:41:05.804Z,17.97
2019-02-02T02:46:07.162Z,18.37
2019-02-02T02:51:08.438Z,18.30
2019-02-02T02:56:09.780Z,18.57
2019-02-02T03:01:11.099Z,17.77
2019-02-02T03:06:12.595Z,17.33
2019-02-02T03:11:13.892Z,17.50
2019-02-02T03:16:15.209Z,17.00
2019-02-02T03:21:16.651Z,16.23
2019-02-02T03:26:18.034Z,13.13
2019-02-02T03:31:19.359Z,15.10
2019-02-02T03:36:20.625Z,17.47
2019-02-02T03:41:22.102Z,15.40
2019-02-02T03:46:23.410Z,16.80
2019-02-02T03:51:24.711Z,15.67
2019-02-02T03:56:26.057Z,13.70
2019-02-02T04:01:29.953Z,13.50
2019-02-02T04:06:30.491Z,13.30
2019-02-02T04:11:31.781Z,12.63
2019-02-02T04:16:33.088Z,12.63
2019-02-02T04:21:34.472Z,13.93
2019-02-02T04:26:35.747Z,13.83
2019-02-02T04:31:37.056Z,13.40
2019-02-02T04:36:38.365Z,12.90
2019-02-02T04:41:39.714Z,13.97
2019-02-02T04:46:41.026Z,13.43
2019-02-02T04:51:42.337Z,13.33
2019-02-02T04:56:43.671Z,13.40
2019-02-02T05:01:45.093Z,14.43
2019-02-02T05:06:46.411Z,11.97
2019-02-02T05:11:47.763Z,14.57
2019-02-02T05:16:49.068Z,14.40
2019-02-02T05:21:50.384Z,12.40
2019-02-02T05:26:51.721Z,14.30
2019-02-02T05:31:53.022Z,13.33
2019-02-02T05:36:54.336Z,12.80
2019-02-02T05:41:55.615Z,12.00
2019-02-02T05:46:56.966Z,14.13
2019-02-02T05:51:58.280Z,12.63
2019-02-02T05:56:59.562Z,14.07
2019-02-02T06:02:00.931Z,13.07
2019-02-02T06:07:02.251Z,14.23
2019-02-02T06:12:03.559Z,13.07
2019-02-02T06:17:04.890Z,13.83
2019-02-02T06:22:06.287Z,13.10
2019-02-02T06:27:07.620Z,13.07
2019-02-02T06:32:12.057Z,14.17
2019-02-02T06:37:11.999Z,14.83
2019-02-02T06:42:13.310Z,16.00
2019-02-02T06:47:14.628Z,15.83
2019-02-02T06:52:15.975Z,15.97
2019-02-02T06:57:17.282Z,16.27
2019-02-02T07:02:18.626Z,16.77
2019-02-02T07:07:19.936Z,13.10
2019-02-02T07:12:21.432Z,15.00
2019-02-02T07:17:22.731Z,15.50
2019-02-02T07:22:24.056Z,13.60
2019-02-02T07:27:30.062Z,16.57
2019-02-02T07:32:31.371Z,15.77
2019-02-02T07:37:32.668Z,13.50
2019-02-02T07:42:33.990Z,14.67
2019-02-02T07:47:35.315Z,13.30
2019-02-02T07:52:36.611Z,14.87
2019-02-02T07:57:37.910Z,14.47
2019-02-02T08:02:39.238Z,14.87
2019-02-02T08:07:40.506Z,12.47
2019-02-02T08:12:41.840Z,12.63
2019-02-02T08:17:43.160Z,13.20
2019-02-02T08:22:44.479Z,12.73
2019-02-02T08:27:45.799Z,14.03
2019-02-02T08:32:47.160Z,12.27
2019-02-02T08:37:48.486Z,10.30
2019-02-02T08:42:49.808Z,10.87
2019-02-02T08:47:51.072Z,13.47
2019-02-02T08:52:52.391Z,13.27
2019-02-02T08:57:53.731Z,14.27
2019-02-02T09:02:55.118Z,15.27
2019-02-02T09:07:56.477Z,13.10
2019-02-02T09:12:57.797Z,15.00
2019-02-02T09:17:59.171Z,10.97
2019-02-02T09:23:06.540Z,10.43
2019-02-02T09:28:03.567Z,12.13
2019-02-02T09:33:04.953Z,10.07
2019-02-02T09:38:06.269Z,10.93
2019-02-02T09:43:07.635Z,11.20
2019-02-02T09:48:08.933Z,11.30
2019-02-02T09:53:10.266Z,9.37
2019-02-02T09:58:11.574Z,10.23
2019-02-02T10:03:13.000Z,10.20
2019-02-02T10:08:14.334Z,10.43
2019-02-02T10:13:15.628Z,9.07
2019-02-02T10:18:17.112Z,10.97
2019-02-02T10:23:18.451Z,13.13
2019-02-02T10:28:19.803Z,12.73
2019-02-02T10:33:21.086Z,11.30
2019-02-02T10:38:22.468Z,11.87
2019-02-02T10:43:23.847Z,11.10
2019-02-02T10:48:25.163Z,11.53
2019-02-02T10:53:26.496Z,14.23
2019-02-02T10:58:27.814Z,13.43
2019-02-02T11:03:29.161Z,12.03
2019-02-02T11:08:30.505Z,12.40
2019-02-02T11:13:31.785Z,12.03
2019-02-02T11:18:33.220Z,11.67
2019-02-02T11:23:34.599Z,12.13
2019-02-02T11:28:35.953Z,13.97
2019-02-02T11:33:37.223Z,15.10
2019-02-02T11:38:38.542Z,13.57
2019-02-02T11:43:39.910Z,13.03
2019-02-02T11:48:41.183Z,25.33
2019-02-02T11:53:42.531Z,20.47
2019-02-02T11:58:43.806Z,29.93
2019-02-02T12:03:45.118Z,16.33
2019-02-02T12:08:49.267Z,22.20
2019-02-02T12:13:49.609Z,20.57
2019-02-02T12:18:50.982Z,23.60
2019-02-02T12:23:52.258Z,22.87
2019-02-02T12:28:53.608Z,21.77
2019-02-02T12:33:54.936Z,23.63
2019-02-02T12:38:56.339Z,23.20
2019-02-02T12:43:57.669Z,42.13
2019-02-02T12:48:58.978Z,26.17
2019-02-02T12:54:00.285Z,25.67
2019-02-02T12:59:01.645Z,25.10
2019-02-02T13:04:05.564Z,27.63
2019-02-02T13:09:06.982Z,41.93
2019-02-02T13:14:08.299Z,31.03
2019-02-02T13:19:09.572Z,17.13
2019-02-02T13:24:11.022Z,17.73
2019-02-02T13:29:12.384Z,40.63
2019-02-02T13:34:13.715Z,41.17
2019-02-02T13:39:14.988Z,43.57
2019-02-02T13:44:16.302Z,46.10
2019-02-02T13:49:17.615Z,49.23
2019-02-02T13:54:18.931Z,67.30
2019-02-02T13:59:20.236Z,71.90
2019-02-02T14:04:21.555Z,36.60
2019-02-02T14:09:22.864Z,44.50
2019-02-02T14:14:24.195Z,49.20
2019-02-02T14:19:25.557Z,62.00
2019-02-02T14:24:26.899Z,65.60
2019-02-02T14:29:28.227Z,72.43
2019-02-02T14:34:40.006Z,72.67
2019-02-02T14:39:32.627Z,101.27
2019-02-02T14:44:34.023Z,114.57
2019-02-02T14:49:35.353Z,109.30
2019-02-02T14:54:36.679Z,81.67
2019-02-02T14:59:37.987Z,80.40
2019-02-02T15:04:39.279Z,60.53
2019-02-02T15:09:40.613Z,55.73
2019-02-02T15:14:41.916Z,53.90
2019-02-02T15:19:43.228Z,134.23
2019-02-02T15:24:44.547Z,82.90
2019-02-02T15:29:45.888Z,58.13
2019-02-02T15:34:47.208Z,174.40
2019-02-02T15:39:48.528Z,142.87
2019-02-02T15:44:49.810Z,90.67
2019-02-02T15:49:51.123Z,73.87
2019-02-02T15:54:52.404Z,107.20
2019-02-02T15:59:53.735Z,207.30
2019-02-02T16:04:55.039Z,133.10
2019-02-02T16:09:56.486Z,118.00
2019-02-02T16:14:57.917Z,101.13
2019-02-02T16:19:59.238Z,119.07
2019-02-02T16:25:00.585Z,95.87
2019-02-02T16:30:03.920Z,83.30
2019-02-02T16:35:08.000Z,74.53
2019-02-02T16:40:12.824Z,64.80
2019-02-02T16:45:19.311Z,75.23
2019-02-02T16:50:20.831Z,79.47
2019-02-02T16:55:24.154Z,89.27
2019-02-02T17:00:32.142Z,139.47
2019-02-02T17:05:33.474Z,115.50
2019-02-02T17:10:35.586Z,110.30
2019-02-02T17:15:36.917Z,108.20
2019-02-02T17:20:40.144Z,76.77
2019-02-02T17:25:41.531Z,391.47
2019-02-02T17:30:42.856Z,123.67
2019-02-02T17:35:44.252Z,190.70
2019-02-02T17:40:45.547Z,151.37
2019-02-02T17:45:46.850Z,109.03
2019-02-02T17:50:48.395Z,203.20
2019-02-02T17:55:49.730Z,252.07
2019-02-02T18:00:52.942Z,236.63
2019-02-02T18:05:54.275Z,166.60
2019-02-02T18:10:55.592Z,292.90
2019-02-02T18:15:56.900Z,329.63
2019-02-02T18:20:58.232Z,245.70
2019-02-02T18:25:59.567Z,165.73
2019-02-02T18:31:00.884Z,169.33
2019-02-02T18:36:02.178Z,148.23
2019-02-02T18:41:03.512Z,124.67
2019-02-02T18:46:04.962Z,172.97
2019-02-02T18:51:06.299Z,161.70
2019-02-02T18:56:07.615Z,147.17
2019-02-02T19:01:08.920Z,117.73
2019-02-02T19:06:10.239Z,117.33
2019-02-02T19:11:11.556Z,347.80
2019-02-02T19:16:13.742Z,117.07
2019-02-02T19:21:15.045Z,126.03
2019-02-02T19:26:16.389Z,169.93
2019-02-02T19:31:17.752Z,160.40
2019-02-02T19:36:19.043Z,113.10
2019-02-02T19:41:20.365Z,283.97
2019-02-02T19:46:21.680Z,135.93
2019-02-02T19:51:23.169Z,106.07
2019-02-02T19:56:24.577Z,101.73
2019-02-02T20:01:25.855Z,106.07
2019-02-02T20:06:27.152Z,119.13
2019-02-02T21:04:01.592Z,388.53
2019-02-02T21:09:04.532Z,207.77
2019-02-02T21:14:05.809Z,155.27
2019-02-02T21:19:07.100Z,125.87
2019-02-02T21:24:08.383Z,135.20
2019-02-02T21:29:09.660Z,173.23
2019-02-02T21:34:10.945Z,671.60
2019-02-02T21:39:12.317Z,308.90
2019-02-02T21:44:13.643Z,248.50
2019-02-02T21:49:15.178Z,291.57
2019-02-02T21:54:16.495Z,183.23
2019-02-02T21:59:17.797Z,163.93
2019-02-02T22:04:19.067Z,140.73
2019-02-02T22:09:20.379Z,216.33
2019-02-02T22:14:22.227Z,177.43
2019-02-02T22:19:23.512Z,255.73
2019-02-02T22:24:24.833Z,229.00
2019-02-02T22:29:26.159Z,219.60
2019-02-02T22:34:27.551Z,244.37
2019-02-02T22:39:28.766Z,239.10
2019-02-02T22:44:30.117Z,260.50
2019-02-02T22:49:31.456Z,218.20
2019-02-02T22:54:32.899Z,192.03
2019-02-02T22:59:34.198Z,264.83
2019-02-02T23:04:39.320Z,218.80
2019-02-02T23:10:10.197Z,168.23
2019-02-02T23:15:27.235Z,157.33
2019-02-02T23:20:28.503Z,178.83
2019-02-02T23:25:29.823Z,133.57
2019-02-02T23:30:31.384Z,131.90
2019-02-02T23:35:32.676Z,128.63
2019-02-02T23:40:34.028Z,138.47
2019-02-02T23:45:35.351Z,172.97
2019-02-02T23:50:36.671Z,189.97
2019-02-02T23:55:38.225Z,187.03
